sensor_id;sensor_type;location;lat;lon;timestamp;temperature;humidity
15013;DHT22;7603;49.432;11.418;2022-09-03T00:01:58;10.50;99.90
15013;DHT22;7603;49.432;11.418;2022-09-03T00:07:38;10.40;99.90
15013;DHT22;7603;49.432;11.418;2022-09-03T00:10:10;10.40;99.90
15013;DHT22;7603;49.432;11.418;2022-09-03T00:12:42;10.40;99.90
15013;DHT22;7603;49.432;11.418;2022-09-03T00:15:18;10.40;99.90
15013;DHT22;7603;49.432;11.418;2022-09-03T00:18:01;10.30;99.90
15013;DHT22;7603;49.432;11.418;2022-09-03T00:20:38;10.30;99.90
15013;DHT22;7603;49.432;11.418;2022-09-03T00:23:06;10.30;99.90
15013;DHT22;7603;49.432;11.418;2022-09-03T00:25:38;10.30;99.90
15013;DHT22;7603;49.432;11.418;2022-09-03T00:28:15;10.30;99.90
15013;DHT22;7603;49.432;11.418;2022-09-03T00:30:45;10.20;99.90
15013;DHT22;7603;49.432;11.418;2022-09-03T00:33:22;10.30;99.90
15013;DHT22;7603;49.432;11.418;2022-09-03T00:35:56;10.20;99.90
15013;DHT22;7603;49.432;11.418;2022-09-03T00:38:22;10.20;99.90
15013;DHT22;7603;49.432;11.418;2022-09-03T00:57:26;9.90;99.90
15013;DHT22;7603;49.432;11.418;2022-09-03T01:00:04;9.90;99.90
15013;DHT22;7603;49.432;11.418;2022-09-03T01:02:40;9.80;99.90
15013;DHT22;7603;49.432;11.418;2022-09-03T01:08:01;9.70;99.90
15013;DHT22;7603;49.432;11.418;2022-09-03T01:13:20;9.70;99.90
15013;DHT22;7603;49.432;11.418;2022-09-03T01:16:03;9.60;99.90
15013;DHT22;7603;49.432;11.418;2022-09-03T01:27:22;9.50;99.90
15013;DHT22;7603;49.432;11.418;2022-09-03T01:30:12;9.50;99.90
15013;DHT22;7603;49.432;11.418;2022-09-03T01:38:26;9.40;99.90
15013;DHT22;7603;49.432;11.418;2022-09-03T01:41:31;9.30;99.90
15013;DHT22;7603;49.432;11.418;2022-09-03T01:55:59;9.20;99.90
15013;DHT22;7603;49.432;11.418;2022-09-03T01:58:29;9.20;99.90
15013;DHT22;7603;49.432;11.418;2022-09-03T02:01:04;9.20;99.90
15013;DHT22;7603;49.432;11.418;2022-09-03T02:03:37;9.30;99.90
15013;DHT22;7603;49.432;11.418;2022-09-03T02:06:07;9.30;99.90
15013;DHT22;7603;49.432;11.418;2022-09-03T02:08:33;9.40;99.90
15013;DHT22;7603;49.432;11.418;2022-09-03T02:10:59;9.30;99.90
15013;DHT22;7603;49.432;11.418;2022-09-03T02:13:35;9.30;99.90
15013;DHT22;7603;49.432;11.418;2022-09-03T02:16:14;9.40;99.90
15013;DHT22;7603;49.432;11.418;2022-09-03T02:18:47;9.20;99.90
15013;DHT22;7603;49.432;11.418;2022-09-03T02:21:16;9.30;99.90
15013;DHT22;7603;49.432;11.418;2022-09-03T02:23:44;9.30;99.90
15013;DHT22;7603;49.432;11.418;2022-09-03T02:26:11;9.30;99.90
15013;DHT22;7603;49.432;11.418;2022-09-03T02:28:38;9.30;99.90
15013;DHT22;7603;49.432;11.418;2022-09-03T02:31:04;9.20;99.90
15013;DHT22;7603;49.432;11.418;2022-09-03T02:33:36;9.20;99.90
15013;DHT22;7603;49.432;11.418;2022-09-03T02:36:05;9.30;99.90
15013;DHT22;7603;49.432;11.418;2022-09-03T02:38:31;9.10;99.90
15013;DHT22;7603;49.432;11.418;2022-09-03T02:40:57;9.10;99.90
15013;DHT22;7603;49.432;11.418;2022-09-03T02:43:49;9.10;99.90
15013;DHT22;7603;49.432;11.418;2022-09-03T02:46:20;9.00;99.90
15013;DHT22;7603;49.432;11.418;2022-09-03T02:48:47;9.00;99.90
15013;DHT22;7603;49.432;11.418;2022-09-03T02:51:12;9.00;99.90
15013;DHT22;7603;49.432;11.418;2022-09-03T02:53:38;8.90;99.90
15013;DHT22;7603;49.432;11.418;2022-09-03T02:56:04;8.90;99.90
15013;DHT22;7603;49.432;11.418;2022-09-03T02:58:30;8.90;99.90
15013;DHT22;7603;49.432;11.418;2022-09-03T03:00:58;8.80;99.90
15013;DHT22;7603;49.432;11.418;2022-09-03T03:03:24;8.80;99.90
15013;DHT22;7603;49.432;11.418;2022-09-03T03:05:52;8.80;99.90
15013;DHT22;7603;49.432;11.418;2022-09-03T03:08:22;8.80;99.90
15013;DHT22;7603;49.432;11.418;2022-09-03T03:10:51;8.80;99.90
15013;DHT22;7603;49.432;11.418;2022-09-03T03:13:17;8.80;99.90
15013;DHT22;7603;49.432;11.418;2022-09-03T03:15:43;8.80;99.90
15013;DHT22;7603;49.432;11.418;2022-09-03T03:18:09;8.60;99.90
15013;DHT22;7603;49.432;11.418;2022-09-03T03:20:39;8.80;99.90
15013;DHT22;7603;49.432;11.418;2022-09-03T03:23:06;8.70;99.90
15013;DHT22;7603;49.432;11.418;2022-09-03T03:25:35;8.80;99.90
15013;DHT22;7603;49.432;11.418;2022-09-03T03:28:02;8.80;99.90
15013;DHT22;7603;49.432;11.418;2022-09-03T03:30:29;8.70;99.90
15013;DHT22;7603;49.432;11.418;2022-09-03T03:32:55;8.70;99.90
15013;DHT22;7603;49.432;11.418;2022-09-03T03:35:22;8.50;99.90
15013;DHT22;7603;49.432;11.418;2022-09-03T03:37:47;8.60;99.90
15013;DHT22;7603;49.432;11.418;2022-09-03T03:40:13;8.50;99.90
15013;DHT22;7603;49.432;11.418;2022-09-03T03:42:40;8.60;99.90
15013;DHT22;7603;49.432;11.418;2022-09-03T03:45:06;8.60;99.90
15013;DHT22;7603;49.432;11.418;2022-09-03T03:47:33;8.60;99.90
15013;DHT22;7603;49.432;11.418;2022-09-03T03:49:59;8.60;99.90
15013;DHT22;7603;49.432;11.418;2022-09-03T03:52:25;8.60;99.90
15013;DHT22;7603;49.432;11.418;2022-09-03T03:54:52;8.60;99.90
15013;DHT22;7603;49.432;11.418;2022-09-03T03:57:19;8.60;99.90
15013;DHT22;7603;49.432;11.418;2022-09-03T03:59:46;8.60;99.90
15013;DHT22;7603;49.432;11.418;2022-09-03T04:02:12;8.60;99.90
15013;DHT22;7603;49.432;11.418;2022-09-03T04:04:38;8.60;99.90
15013;DHT22;7603;49.432;11.418;2022-09-03T04:07:04;8.70;99.90
15013;DHT22;7603;49.432;11.418;2022-09-03T04:09:30;8.60;99.90
15013;DHT22;7603;49.432;11.418;2022-09-03T04:11:55;8.70;99.90
15013;DHT22;7603;49.432;11.418;2022-09-03T04:14:22;8.60;99.90
15013;DHT22;7603;49.432;11.418;2022-09-03T04:16:48;8.70;99.90
15013;DHT22;7603;49.432;11.418;2022-09-03T04:19:15;8.70;99.90
15013;DHT22;7603;49.432;11.418;2022-09-03T04:21:41;8.70;99.90
15013;DHT22;7603;49.432;11.418;2022-09-03T04:24:07;8.70;99.90
15013;DHT22;7603;49.432;11.418;2022-09-03T04:26:33;8.70;99.90
15013;DHT22;7603;49.432;11.418;2022-09-03T04:29:01;8.70;99.90
15013;DHT22;7603;49.432;11.418;2022-09-03T04:31:27;8.80;99.90
15013;DHT22;7603;49.432;11.418;2022-09-03T04:33:53;8.80;99.90
15013;DHT22;7603;49.432;11.418;2022-09-03T04:36:21;8.80;99.90
15013;DHT22;7603;49.432;11.418;2022-09-03T04:38:49;8.80;99.90
15013;DHT22;7603;49.432;11.418;2022-09-03T04:41:18;8.90;99.90
15013;DHT22;7603;49.432;11.418;2022-09-03T04:43:44;9.00;99.90
15013;DHT22;7603;49.432;11.418;2022-09-03T04:46:12;9.10;99.90
15013;DHT22;7603;49.432;11.418;2022-09-03T04:48:38;9.20;99.90
15013;DHT22;7603;49.432;11.418;2022-09-03T04:51:12;9.30;99.90
15013;DHT22;7603;49.432;11.418;2022-09-03T04:53:41;9.40;99.90
15013;DHT22;7603;49.432;11.418;2022-09-03T04:56:16;9.40;99.90
15013;DHT22;7603;49.432;11.418;2022-09-03T04:58:41;9.50;99.90
15013;DHT22;7603;49.432;11.418;2022-09-03T05:01:16;9.60;99.90
15013;DHT22;7603;49.432;11.418;2022-09-03T05:03:43;9.80;99.90
15013;DHT22;7603;49.432;11.418;2022-09-03T05:06:09;9.80;99.90
15013;DHT22;7603;49.432;11.418;2022-09-03T05:08:35;9.90;99.90
15013;DHT22;7603;49.432;11.418;2022-09-03T05:11:03;10.10;99.90
15013;DHT22;7603;49.432;11.418;2022-09-03T05:13:29;10.10;99.90
15013;DHT22;7603;49.432;11.418;2022-09-03T05:16:00;10.30;99.90
15013;DHT22;7603;49.432;11.418;2022-09-03T05:18:26;10.30;99.90
15013;DHT22;7603;49.432;11.418;2022-09-03T05:21:05;10.50;99.90
15013;DHT22;7603;49.432;11.418;2022-09-03T05:23:35;10.70;99.90
15013;DHT22;7603;49.432;11.418;2022-09-03T05:26:03;10.80;99.90
15013;DHT22;7603;49.432;11.418;2022-09-03T05:28:35;10.90;99.90
15013;DHT22;7603;49.432;11.418;2022-09-03T05:31:09;11.10;99.90
15013;DHT22;7603;49.432;11.418;2022-09-03T05:33:45;11.20;99.90
15013;DHT22;7603;49.432;11.418;2022-09-03T05:36:13;11.40;99.90
15013;DHT22;7603;49.432;11.418;2022-09-03T05:38:40;11.50;99.90
15013;DHT22;7603;49.432;11.418;2022-09-03T05:41:09;11.70;99.90
15013;DHT22;7603;49.432;11.418;2022-09-03T05:43:35;11.80;99.90
15013;DHT22;7603;49.432;11.418;2022-09-03T05:46:12;12.00;99.90
15013;DHT22;7603;49.432;11.418;2022-09-03T05:48:39;12.20;99.90
15013;DHT22;7603;49.432;11.418;2022-09-03T05:51:07;12.40;99.90
15013;DHT22;7603;49.432;11.418;2022-09-03T05:53:35;12.60;99.90
15013;DHT22;7603;49.432;11.418;2022-09-03T05:56:10;13.00;99.90
15013;DHT22;7603;49.432;11.418;2022-09-03T05:58:40;13.20;99.90
15013;DHT22;7603;49.432;11.418;2022-09-03T06:01:24;13.40;99.90
15013;DHT22;7603;49.432;11.418;2022-09-03T06:04:07;13.60;99.90
15013;DHT22;7603;49.432;11.418;2022-09-03T06:06:38;13.80;99.90
15013;DHT22;7603;49.432;11.418;2022-09-03T06:09:10;14.00;99.90
15013;DHT22;7603;49.432;11.418;2022-09-03T06:11:37;14.10;99.90
15013;DHT22;7603;49.432;11.418;2022-09-03T06:14:05;14.20;99.90
15013;DHT22;7603;49.432;11.418;2022-09-03T06:16:32;14.30;99.90
15013;DHT22;7603;49.432;11.418;2022-09-03T06:18:59;14.30;99.90
15013;DHT22;7603;49.432;11.418;2022-09-03T06:21:25;14.50;99.90
15013;DHT22;7603;49.432;11.418;2022-09-03T06:23:52;14.50;99.90
15013;DHT22;7603;49.432;11.418;2022-09-03T06:26:19;14.50;99.90
15013;DHT22;7603;49.432;11.418;2022-09-03T06:28:46;14.50;99.90
15013;DHT22;7603;49.432;11.418;2022-09-03T06:31:17;14.60;99.90
15013;DHT22;7603;49.432;11.418;2022-09-03T06:33:44;14.60;99.90
15013;DHT22;7603;49.432;11.418;2022-09-03T06:36:13;14.60;99.90
15013;DHT22;7603;49.432;11.418;2022-09-03T06:38:39;14.70;99.90
15013;DHT22;7603;49.432;11.418;2022-09-03T06:41:08;14.70;99.90
15013;DHT22;7603;49.432;11.418;2022-09-03T06:43:37;14.80;99.90
15013;DHT22;7603;49.432;11.418;2022-09-03T06:48:31;15.50;99.90
15013;DHT22;7603;49.432;11.418;2022-09-03T06:51:05;15.80;99.90
15013;DHT22;7603;49.432;11.418;2022-09-03T06:53:33;16.10;99.90
15013;DHT22;7603;49.432;11.418;2022-09-03T06:56:03;16.20;99.90
15013;DHT22;7603;49.432;11.418;2022-09-03T06:58:31;16.50;99.90
15013;DHT22;7603;49.432;11.418;2022-09-03T07:01:05;16.60;99.90
15013;DHT22;7603;49.432;11.418;2022-09-03T07:03:34;16.70;99.90
15013;DHT22;7603;49.432;11.418;2022-09-03T07:06:05;16.80;99.90
15013;DHT22;7603;49.432;11.418;2022-09-03T07:08:32;17.00;99.90
15013;DHT22;7603;49.432;11.418;2022-09-03T07:10:59;17.20;99.90
15013;DHT22;7603;49.432;11.418;2022-09-03T07:13:28;17.50;99.90
15013;DHT22;7603;49.432;11.418;2022-09-03T07:16:04;17.70;99.90
15013;DHT22;7603;49.432;11.418;2022-09-03T07:18:31;17.90;99.90
15013;DHT22;7603;49.432;11.418;2022-09-03T07:20:58;18.10;99.90
15013;DHT22;7603;49.432;11.418;2022-09-03T07:23:24;18.40;99.90
15013;DHT22;7603;49.432;11.418;2022-09-03T07:25:55;18.50;99.90
15013;DHT22;7603;49.432;11.418;2022-09-03T07:28:21;18.70;99.90
15013;DHT22;7603;49.432;11.418;2022-09-03T07:30:47;18.70;99.90
15013;DHT22;7603;49.432;11.418;2022-09-03T07:33:13;18.70;99.90
15013;DHT22;7603;49.432;11.418;2022-09-03T07:35:38;18.80;99.90
15013;DHT22;7603;49.432;11.418;2022-09-03T07:38:04;19.10;99.70
15013;DHT22;7603;49.432;11.418;2022-09-03T07:40:29;19.30;98.60
15013;DHT22;7603;49.432;11.418;2022-09-03T07:42:57;19.50;98.00
15013;DHT22;7603;49.432;11.418;2022-09-03T07:45:30;19.80;96.60
15013;DHT22;7603;49.432;11.418;2022-09-03T07:47:56;19.90;94.90
15013;DHT22;7603;49.432;11.418;2022-09-03T07:50:23;20.00;94.60
15013;DHT22;7603;49.432;11.418;2022-09-03T07:52:48;20.10;93.70
15013;DHT22;7603;49.432;11.418;2022-09-03T07:55:14;20.30;93.80
15013;DHT22;7603;49.432;11.418;2022-09-03T07:57:40;20.50;93.40
15013;DHT22;7603;49.432;11.418;2022-09-03T08:00:06;20.70;92.70
15013;DHT22;7603;49.432;11.418;2022-09-03T08:02:33;21.00;91.40
15013;DHT22;7603;49.432;11.418;2022-09-03T08:04:59;21.20;91.50
15013;DHT22;7603;49.432;11.418;2022-09-03T08:07:27;21.40;90.60
15013;DHT22;7603;49.432;11.418;2022-09-03T08:09:53;21.50;87.90
15013;DHT22;7603;49.432;11.418;2022-09-03T08:12:19;21.40;87.20
15013;DHT22;7603;49.432;11.418;2022-09-03T08:14:45;21.50;87.50
15013;DHT22;7603;49.432;11.418;2022-09-03T08:17:11;21.60;86.00
15013;DHT22;7603;49.432;11.418;2022-09-03T08:19:37;21.80;86.00
15013;DHT22;7603;49.432;11.418;2022-09-03T08:22:05;22.00;84.80
15013;DHT22;7603;49.432;11.418;2022-09-03T08:24:31;22.30;82.30
15013;DHT22;7603;49.432;11.418;2022-09-03T08:26:59;22.40;81.30
15013;DHT22;7603;49.432;11.418;2022-09-03T08:29:25;22.50;81.50
15013;DHT22;7603;49.432;11.418;2022-09-03T08:31:51;22.70;80.10
15013;DHT22;7603;49.432;11.418;2022-09-03T08:34:17;22.80;79.30
15013;DHT22;7603;49.432;11.418;2022-09-03T08:36:43;23.00;78.60
15013;DHT22;7603;49.432;11.418;2022-09-03T08:39:12;23.10;77.60
15013;DHT22;7603;49.432;11.418;2022-09-03T08:44:43;23.20;76.50
15013;DHT22;7603;49.432;11.418;2022-09-03T08:48:30;23.30;76.30
15013;DHT22;7603;49.432;11.418;2022-09-03T08:50:36;23.70;75.30
15013;DHT22;7603;49.432;11.418;2022-09-03T08:53:11;24.10;74.20
15013;DHT22;7603;49.432;11.418;2022-09-03T08:58:16;24.30;70.60
15013;DHT22;7603;49.432;11.418;2022-09-03T09:00:50;24.30;71.10
15013;DHT22;7603;49.432;11.418;2022-09-03T09:03:36;24.20;71.00
15013;DHT22;7603;49.432;11.418;2022-09-03T09:18:28;25.20;67.30
15013;DHT22;7603;49.432;11.418;2022-09-03T09:21:19;26.10;65.80
15013;DHT22;7603;49.432;11.418;2022-09-03T09:23:46;27.10;62.40
15013;DHT22;7603;49.432;11.418;2022-09-03T09:26:16;28.00;60.60
15013;DHT22;7603;49.432;11.418;2022-09-03T09:28:45;28.70;57.40
15013;DHT22;7603;49.432;11.418;2022-09-03T09:31:14;29.20;55.30
15013;DHT22;7603;49.432;11.418;2022-09-03T09:33:40;29.60;54.70
15013;DHT22;7603;49.432;11.418;2022-09-03T09:36:12;30.10;53.50
15013;DHT22;7603;49.432;11.418;2022-09-03T09:38:41;30.30;52.00
15013;DHT22;7603;49.432;11.418;2022-09-03T09:41:12;30.20;51.00
15013;DHT22;7603;49.432;11.418;2022-09-03T09:43:39;30.00;50.80
15013;DHT22;7603;49.432;11.418;2022-09-03T09:46:19;30.00;50.80
15013;DHT22;7603;49.432;11.418;2022-09-03T09:48:50;30.40;50.90
15013;DHT22;7603;49.432;11.418;2022-09-03T09:51:21;31.10;49.90
15013;DHT22;7603;49.432;11.418;2022-09-03T09:53:47;31.70;49.00
15013;DHT22;7603;49.432;11.418;2022-09-03T09:56:23;32.50;47.60
15013;DHT22;7603;49.432;11.418;2022-09-03T09:59:00;33.40;45.40
15013;DHT22;7603;49.432;11.418;2022-09-03T10:01:26;34.00;44.00
15013;DHT22;7603;49.432;11.418;2022-09-03T10:03:59;34.50;43.10
15013;DHT22;7603;49.432;11.418;2022-09-03T10:06:32;34.60;41.40
15013;DHT22;7603;49.432;11.418;2022-09-03T10:09:22;34.60;41.20
15013;DHT22;7603;49.432;11.418;2022-09-03T10:11:49;34.40;41.30
15013;DHT22;7603;49.432;11.418;2022-09-03T10:14:25;34.50;41.40
15013;DHT22;7603;49.432;11.418;2022-09-03T10:17:20;34.30;40.80
15013;DHT22;7603;49.432;11.418;2022-09-03T10:25:25;34.40;40.80
15013;DHT22;7603;49.432;11.418;2022-09-03T10:27:52;34.80;40.30
15013;DHT22;7603;49.432;11.418;2022-09-03T10:30:21;35.70;39.60
15013;DHT22;7603;49.432;11.418;2022-09-03T10:35:35;38.10;37.20
15013;DHT22;7603;49.432;11.418;2022-09-03T10:38:50;39.20;35.50
15013;DHT22;7603;49.432;11.418;2022-09-03T10:44:14;39.80;33.20
15013;DHT22;7603;49.432;11.418;2022-09-03T10:47:04;39.40;33.10
15013;DHT22;7603;49.432;11.418;2022-09-03T10:49:53;39.10;33.30
15013;DHT22;7603;49.432;11.418;2022-09-03T10:52:27;39.20;33.60
15013;DHT22;7603;49.432;11.418;2022-09-03T10:55:22;39.20;33.40
15013;DHT22;7603;49.432;11.418;2022-09-03T11:00:46;38.60;33.80
15013;DHT22;7603;49.432;11.418;2022-09-03T11:03:45;38.30;34.20
15013;DHT22;7603;49.432;11.418;2022-09-03T11:06:18;38.50;34.00
15013;DHT22;7603;49.432;11.418;2022-09-03T11:11:51;40.30;32.80
15013;DHT22;7603;49.432;11.418;2022-09-03T11:14:34;41.70;31.70
15013;DHT22;7603;49.432;11.418;2022-09-03T11:17:24;42.70;30.60
15013;DHT22;7603;49.432;11.418;2022-09-03T11:19:55;43.70;29.80
15013;DHT22;7603;49.432;11.418;2022-09-03T11:22:23;44.30;29.30
15013;DHT22;7603;49.432;11.418;2022-09-03T11:24:57;45.10;29.30
15013;DHT22;7603;49.432;11.418;2022-09-03T11:27:31;45.80;28.10
15013;DHT22;7603;49.432;11.418;2022-09-03T11:30:05;46.10;28.00
15013;DHT22;7603;49.432;11.418;2022-09-03T11:32:51;45.60;27.50
15013;DHT22;7603;49.432;11.418;2022-09-03T11:38:02;43.60;28.40
15013;DHT22;7603;49.432;11.418;2022-09-03T11:40:33;42.40;29.80
15013;DHT22;7603;49.432;11.418;2022-09-03T11:48:36;38.60;33.10
15013;DHT22;7603;49.432;11.418;2022-09-03T11:51:03;38.30;33.90
15013;DHT22;7603;49.432;11.418;2022-09-03T11:53:35;38.90;33.70
15013;DHT22;7603;49.432;11.418;2022-09-03T11:58:36;40.00;32.90
15013;DHT22;7603;49.432;11.418;2022-09-03T12:01:10;40.20;32.30
15013;DHT22;7603;49.432;11.418;2022-09-03T12:03:52;40.50;31.90
15013;DHT22;7603;49.432;11.418;2022-09-03T12:14:53;36.50;35.60
15013;DHT22;7603;49.432;11.418;2022-09-03T12:19:57;35.10;37.40
15013;DHT22;7603;49.432;11.418;2022-09-03T12:22:27;34.80;38.50
15013;DHT22;7603;49.432;11.418;2022-09-03T12:25:07;35.20;37.90
15013;DHT22;7603;49.432;11.418;2022-09-03T12:27:34;36.30;36.90
15013;DHT22;7603;49.432;11.418;2022-09-03T12:30:02;37.90;35.50
15013;DHT22;7603;49.432;11.418;2022-09-03T12:32:34;39.40;34.10
15013;DHT22;7603;49.432;11.418;2022-09-03T12:35:20;40.20;32.30
15013;DHT22;7603;49.432;11.418;2022-09-03T12:37:46;39.90;32.30
15013;DHT22;7603;49.432;11.418;2022-09-03T12:40:30;39.80;32.40
15013;DHT22;7603;49.432;11.418;2022-09-03T12:43:14;39.90;32.40
15013;DHT22;7603;49.432;11.418;2022-09-03T12:45:45;40.70;31.60
15013;DHT22;7603;49.432;11.418;2022-09-03T12:48:16;41.10;31.10
15013;DHT22;7603;49.432;11.418;2022-09-03T12:50:43;41.70;30.70
15013;DHT22;7603;49.432;11.418;2022-09-03T12:53:13;42.70;30.00
15013;DHT22;7603;49.432;11.418;2022-09-03T12:55:46;43.50;29.40
15013;DHT22;7603;49.432;11.418;2022-09-03T12:58:16;43.50;29.40
15013;DHT22;7603;49.432;11.418;2022-09-03T13:00:47;43.30;29.50
15013;DHT22;7603;49.432;11.418;2022-09-03T13:04:03;42.90;29.60
15013;DHT22;7603;49.432;11.418;2022-09-03T13:06:13;42.50;29.90
15013;DHT22;7603;49.432;11.418;2022-09-03T13:08:59;41.90;30.00
15013;DHT22;7603;49.432;11.418;2022-09-03T13:11:26;40.90;31.10
15013;DHT22;7603;49.432;11.418;2022-09-03T13:14:13;39.80;32.00
15013;DHT22;7603;49.432;11.418;2022-09-03T13:17:29;38.90;33.20
15013;DHT22;7603;49.432;11.418;2022-09-03T13:25:12;36.00;36.40
15013;DHT22;7603;49.432;11.418;2022-09-03T13:31:05;33.70;39.90
15013;DHT22;7603;49.432;11.418;2022-09-03T13:33:42;32.60;41.10
15013;DHT22;7603;49.432;11.418;2022-09-03T13:36:18;31.60;42.90
15013;DHT22;7603;49.432;11.418;2022-09-03T13:38:58;30.80;44.60
15013;DHT22;7603;49.432;11.418;2022-09-03T13:41:50;30.10;45.90
15013;DHT22;7603;49.432;11.418;2022-09-03T13:50:09;28.20;49.60
15013;DHT22;7603;49.432;11.418;2022-09-03T13:53:07;27.70;51.30
15013;DHT22;7603;49.432;11.418;2022-09-03T13:55:44;27.20;53.10
15013;DHT22;7603;49.432;11.418;2022-09-03T14:01:44;26.50;56.10
15013;DHT22;7603;49.432;11.418;2022-09-03T14:04:21;25.80;60.70
15013;DHT22;7603;49.432;11.418;2022-09-03T14:07:15;25.30;65.30
15013;DHT22;7603;49.432;11.418;2022-09-03T14:15:48;24.20;80.80
15013;DHT22;7603;49.432;11.418;2022-09-03T14:18:50;24.20;85.90
15013;DHT22;7603;49.432;11.418;2022-09-03T14:21:40;24.00;87.00
15013;DHT22;7603;49.432;11.418;2022-09-03T14:24:15;23.80;88.20
15013;DHT22;7603;49.432;11.418;2022-09-03T14:26:57;23.60;90.80
15013;DHT22;7603;49.432;11.418;2022-09-03T14:29:27;23.70;91.40
15013;DHT22;7603;49.432;11.418;2022-09-03T14:40:18;23.90;91.80
15013;DHT22;7603;49.432;11.418;2022-09-03T14:56:39;23.60;92.00
15013;DHT22;7603;49.432;11.418;2022-09-03T14:59:24;23.50;92.60
15013;DHT22;7603;49.432;11.418;2022-09-03T15:02:25;23.40;93.30
15013;DHT22;7603;49.432;11.418;2022-09-03T15:10:31;23.10;94.30
15013;DHT22;7603;49.432;11.418;2022-09-03T15:13:21;23.10;94.60
15013;DHT22;7603;49.432;11.418;2022-09-03T15:30:12;23.10;95.10
15013;DHT22;7603;49.432;11.418;2022-09-03T15:38:04;23.10;95.10
15013;DHT22;7603;49.432;11.418;2022-09-03T15:40:45;23.10;95.30
15013;DHT22;7603;49.432;11.418;2022-09-03T15:43:24;23.10;94.90
15013;DHT22;7603;49.432;11.418;2022-09-03T15:46:08;23.10;94.90
15013;DHT22;7603;49.432;11.418;2022-09-03T15:48:57;23.10;94.80
15013;DHT22;7603;49.432;11.418;2022-09-03T15:51:34;23.20;94.60
15013;DHT22;7603;49.432;11.418;2022-09-03T15:54:15;23.20;94.20
15013;DHT22;7603;49.432;11.418;2022-09-03T15:59:24;23.20;93.90
15013;DHT22;7603;49.432;11.418;2022-09-03T16:01:51;23.20;94.10
15013;DHT22;7603;49.432;11.418;2022-09-03T16:04:41;23.10;94.10
15013;DHT22;7603;49.432;11.418;2022-09-03T16:10:14;22.90;96.60
15013;DHT22;7603;49.432;11.418;2022-09-03T16:15:29;22.60;98.90
15013;DHT22;7603;49.432;11.418;2022-09-03T16:21:04;22.30;99.90
15013;DHT22;7603;49.432;11.418;2022-09-03T16:23:59;22.20;99.90
15013;DHT22;7603;49.432;11.418;2022-09-03T16:29:17;22.00;99.90
15013;DHT22;7603;49.432;11.418;2022-09-03T16:57:44;21.10;99.90
15013;DHT22;7603;49.432;11.418;2022-09-03T17:00:33;21.00;99.90
15013;DHT22;7603;49.432;11.418;2022-09-03T17:06:04;20.80;99.90
15013;DHT22;7603;49.432;11.418;2022-09-03T17:20:21;20.40;99.90
15013;DHT22;7603;49.432;11.418;2022-09-03T17:23:14;20.30;99.90
15013;DHT22;7603;49.432;11.418;2022-09-03T17:25:55;20.10;99.90
15013;DHT22;7603;49.432;11.418;2022-09-03T17:28:47;19.70;99.90
15013;DHT22;7603;49.432;11.418;2022-09-03T17:31:37;19.40;99.90
15013;DHT22;7603;49.432;11.418;2022-09-03T17:34:36;19.10;99.90
15013;DHT22;7603;49.432;11.418;2022-09-03T17:45:58;18.40;99.90
15013;DHT22;7603;49.432;11.418;2022-09-03T17:48:57;18.40;99.90
15013;DHT22;7603;49.432;11.418;2022-09-03T17:51:46;18.50;99.90
15013;DHT22;7603;49.432;11.418;2022-09-03T17:57:17;18.50;99.90
15013;DHT22;7603;49.432;11.418;2022-09-03T18:00:03;18.50;99.90
15013;DHT22;7603;49.432;11.418;2022-09-03T18:02:44;18.50;99.90
15013;DHT22;7603;49.432;11.418;2022-09-03T18:05:25;18.50;99.90
15013;DHT22;7603;49.432;11.418;2022-09-03T18:10:38;18.50;99.90
15013;DHT22;7603;49.432;11.418;2022-09-03T18:16:17;18.40;99.90
15013;DHT22;7603;49.432;11.418;2022-09-03T18:18:47;18.30;99.90
15013;DHT22;7603;49.432;11.418;2022-09-03T18:21:20;18.20;99.90
15013;DHT22;7603;49.432;11.418;2022-09-03T18:27:08;18.20;99.90
15013;DHT22;7603;49.432;11.418;2022-09-03T18:30:08;18.20;99.90
15013;DHT22;7603;49.432;11.418;2022-09-03T18:32:55;18.20;99.90
15013;DHT22;7603;49.432;11.418;2022-09-03T18:35:43;18.10;99.90
15013;DHT22;7603;49.432;11.418;2022-09-03T18:38:30;18.10;99.90
15013;DHT22;7603;49.432;11.418;2022-09-03T18:50:37;17.80;99.90
15013;DHT22;7603;49.432;11.418;2022-09-03T19:05:52;17.60;99.90
15013;DHT22;7603;49.432;11.418;2022-09-03T19:12:02;17.60;99.90
15013;DHT22;7603;49.432;11.418;2022-09-03T19:14:58;17.60;99.90
15013;DHT22;7603;49.432;11.418;2022-09-03T19:18:06;17.70;99.90
15013;DHT22;7603;49.432;11.418;2022-09-03T19:23:46;17.80;99.90
15013;DHT22;7603;49.432;11.418;2022-09-03T19:30:15;17.90;99.90
15013;DHT22;7603;49.432;11.418;2022-09-03T19:32:45;17.90;99.90
15013;DHT22;7603;49.432;11.418;2022-09-03T19:35:51;18.00;99.90
15013;DHT22;7603;49.432;11.418;2022-09-03T19:42:21;17.90;99.90
15013;DHT22;7603;49.432;11.418;2022-09-03T19:51:43;17.90;99.90
15013;DHT22;7603;49.432;11.418;2022-09-03T19:54:28;17.90;99.90
15013;DHT22;7603;49.432;11.418;2022-09-03T19:57:15;17.90;99.90
15013;DHT22;7603;49.432;11.418;2022-09-03T20:00:02;17.90;99.90
15013;DHT22;7603;49.432;11.418;2022-09-03T20:02:47;17.90;99.90
15013;DHT22;7603;49.432;11.418;2022-09-03T20:05:32;17.90;99.90
15013;DHT22;7603;49.432;11.418;2022-09-03T20:08:19;17.80;99.90
15013;DHT22;7603;49.432;11.418;2022-09-03T20:11:09;17.80;99.90
15013;DHT22;7603;49.432;11.418;2022-09-03T20:13:38;17.70;99.90
15013;DHT22;7603;49.432;11.418;2022-09-03T20:19:24;17.70;99.90
15013;DHT22;7603;49.432;11.418;2022-09-03T20:24:42;17.70;99.90
15013;DHT22;7603;49.432;11.418;2022-09-03T20:30:12;17.70;99.90
15013;DHT22;7603;49.432;11.418;2022-09-03T20:41:31;17.50;99.90
15013;DHT22;7603;49.432;11.418;2022-09-03T20:55:18;17.50;99.90
15013;DHT22;7603;49.432;11.418;2022-09-03T21:01:08;17.50;99.90
15013;DHT22;7603;49.432;11.418;2022-09-03T21:03:51;17.50;99.90
15013;DHT22;7603;49.432;11.418;2022-09-03T21:06:32;17.50;99.90
15013;DHT22;7603;49.432;11.418;2022-09-03T21:09:06;17.40;99.90
15013;DHT22;7603;49.432;11.418;2022-09-03T21:17:44;17.20;99.90
15013;DHT22;7603;49.432;11.418;2022-09-03T21:20:27;17.20;99.90
15013;DHT22;7603;49.432;11.418;2022-09-03T21:23:09;17.10;99.90
15013;DHT22;7603;49.432;11.418;2022-09-03T21:26:08;17.10;99.90
15013;DHT22;7603;49.432;11.418;2022-09-03T21:28:38;17.00;99.90
15013;DHT22;7603;49.432;11.418;2022-09-03T21:31:21;16.90;99.90
15013;DHT22;7603;49.432;11.418;2022-09-03T21:33:54;16.80;99.90
15013;DHT22;7603;49.432;11.418;2022-09-03T21:36:30;16.70;99.90
15013;DHT22;7603;49.432;11.418;2022-09-03T21:39:23;16.60;99.90
15013;DHT22;7603;49.432;11.418;2022-09-03T21:47:07;16.30;99.90
15013;DHT22;7603;49.432;11.418;2022-09-03T21:49:50;16.30;99.90
15013;DHT22;7603;49.432;11.418;2022-09-03T21:52:20;16.20;99.90
15013;DHT22;7603;49.432;11.418;2022-09-03T21:54:47;16.20;99.90
15013;DHT22;7603;49.432;11.418;2022-09-03T21:57:28;16.20;99.90
15013;DHT22;7603;49.432;11.418;2022-09-03T22:00:15;16.10;99.90
15013;DHT22;7603;49.432;11.418;2022-09-03T22:02:48;16.10;99.90